Terminal Aerodrome Forecast
Issued by NWS

Home | Current Version | Previous Version | Graphics & Text | Print | Product List | Glossary Off
Versions: 1 2 3 4 5 6 7 8 9 10 11 12 13 14

000
FTUS41 KCLE 071134
TAFFDY
TAF
KFDY 071134Z 0712/0812 18010KT 6SM BR SCT040 OVC250
     FM071400 22010G20KT P6SM VCTS SCT020 BKN040CB OVC080
      TEMPO 0715/0717 3SM -TSRA BR SCT015 BKN020 OVC040CB
     FM071700 24010G20KT 5SM -SHRA BR VCTS BKN020 OVC040CB
      TEMPO 0718/0721 3SM -TSRA BR BKN015 OVC020CB
     FM072300 32010KT 3SM -SHRA BR OVC007
     FM080500 02008KT 6SM BR BKN015 OVC020=

USA.gov is the U.S. government's official web portal to all federal, state and local government web resources and services.